Airfield :







YOU CAN JOIN US ON...

 
LOGIN :

Register | Disclaimer

   EN    FR    IT 

 









Legend :    VFR   Marginal VFR   IFR   Intensive IFR   Very Intensive IFR
Visi :
Ceiling :
>= 8 km
>= 3000ft
5 to 8 km
1000 to 3000 ft
1500m to 5 km
500 to 1000 ft
800 to 1500m
200 to 500 ft
< 800m
< 200 ft
Symbols :   Thunderstorms  Fog  Heavy snow  Heavy precipitations  Wind > 20 kt






- Airport Elevation : 232 ft
- IATA code : YQM


CYQM - Greater Moncton International

CURRENT METAR :
  • 271500Z 15007KT 090V160 15SM BKN022 BKN260 15/09 A3024 RMK SC5CI2 SLP243

EXPIRED METARs :
  • 271400Z 12005KT 15SM BKN018 12/08 A3025 RMK SC7 SLP246
  • 271326Z 11009KT 080V140 15SM BKN016 12/08 A3025 RMK SC7 SLP247
  • 271300Z 11009KT 15SM BKN014 11/08 A3026 RMK SC7 SLP250
  • 271200Z 11009KT 070V140 15SM BKN012 10/08 A3025 RMK SC7 SLP248
  • 271100Z 11006KT 8SM OVC006 08/07 A3026 RMK ST8 SLP249

TAF TAF CYQM
Valid from the 27 at 12:00 until the 28 at 12:00 UTC


271140Z 2712/2812 11007KT P6SM BKN006 OVC015
TEMPO 2712/2715 SCT006 BKN025
FM271500 12008KT P6SM BKN030
FM271800 17010G20KT P6SM BKN040
FM280200 17013G23KT P6SM BKN200
FM280500 18015G25KT P6SM SCT008 BKN012 BKN100 RMK NXT FCST BY 271800Z
CZQM FIR / North America



MET'MAP, your aeronautical weather chart ! - Copyright ORBIFLY December 2007 - Disclaimer

ORBIFLY MET'MAP TEAM :

Programming & Development : Alexandra Zaïnal
Original concept : Baudouin d'Aumeries
Technical & hardware support : Manuel Goepfert
Assistance : Marc-Olivier Méhu




SOURCES & CREDITS :

   NOAA